Terminal Aerodrome Forecast
Issued by NWS Jackson, KY

Home | Current Version | Previous Version | Text Only | Print | Product List | Glossary On
Versions: 1 2 3 4 5 6 7 8 9 10 11 12 13 14 15 16 17 18 19 20 21
643
FTUS43 KJKL 241124
TAFJKL
TAF
KJKL 241124Z 2412/2512 18003KT P6SM FEW250 WS020/21035KT
     FM241400 19008KT P6SM FEW035 FEW250
     FM241800 20011G19KT P6SM FEW035 FEW130
     FM250400 19009KT P6SM VCTS BKN040CB
     FM250600 20010KT 3SM SHRA VCTS OVC025CB=

USA.gov is the U.S. government's official web portal to all federal, state and local government web resources and services.